Time;durP1;ratioP1;P1;durP2;ratioP2;P2;SDS_P1;SDS_P2;PMS_P1;PMS_P2;Temp;Humidity;BMP_temperature;BMP_pressure;BME280_temperature;BME280_humidity;BME280_pressure;Samples;Min_cycle;Max_cycle;Signal;HPM_P1;HPM_P2
2023/08/25 00:01:35;;;;;;;22.52;15.40;;;;;;;30.12;49.31;100866.38;6104435;23;20523;-79
2023/08/25 00:04:02;;;;;;;23.83;15.52;;;;;;;30.13;49.25;100876.25;6120146;23;20021;-79
2023/08/25 00:06:32;;;;;;;23.58;15.13;;;;;;;29.90;49.71;100853.59;6120366;23;20087;-81
2023/08/25 00:08:59;;;;;;;28.20;14.32;;;;;;;29.96;48.96;100859.94;6121858;23;20457;-79
2023/08/25 00:11:27;;;;;;;20.88;13.77;;;;;;;29.90;49.19;100870.00;6091853;23;20095;-79
2023/08/25 00:13:54;;;;;;;16.42;12.82;;;;;;;29.54;48.50;100817.66;6123509;23;20040;-80
2023/08/25 00:16:24;;;;;;;20.67;13.07;;;;;;;29.70;48.69;100831.50;6100943;23;20397;-77
2023/08/25 00:18:51;;;;;;;15.55;12.02;;;;;;;29.32;48.79;100759.44;6110686;23;20021;-78
2023/08/25 00:21:18;;;;;;;21.20;12.48;;;;;;;29.64;48.20;100819.66;6102339;23;20727;-80
2023/08/25 00:23:45;;;;;;;20.88;12.60;;;;;;;29.69;48.23;100836.16;6103234;23;20047;-83
2023/08/25 00:26:12;;;;;;;19.33;13.25;;;;;;;29.72;48.86;100840.28;6123084;23;20021;-81
2023/08/25 00:28:39;;;;;;;16.70;14.90;;;;;;;29.10;51.25;100745.78;6092118;23;20386;-81
2023/08/25 00:31:06;;;;;;;19.10;13.57;;;;;;;29.69;50.10;100836.16;6089326;23;20084;-80
2023/08/25 00:33:33;;;;;;;18.08;11.07;;;;;;;29.75;49.14;100837.84;6110226;23;20087;-82
2023/08/25 00:36:00;;;;;;;20.35;12.35;;;;;;;29.56;47.85;100812.72;6141013;23;20024;-80
2023/08/25 00:38:28;;;;;;;13.80;11.73;;;;;;;29.52;47.78;100802.59;6113240;23;20052;-80
2023/08/25 00:40:56;;;;;;;14.32;11.02;;;;;;;29.76;47.28;100846.88;6146743;23;20468;-80
2023/08/25 00:43:23;;;;;;;17.58;11.70;;;;;;;29.71;46.68;100839.47;6111553;23;20025;-81
2023/08/25 00:45:50;;;;;;;20.10;11.77;;;;;;;29.51;46.41;100807.22;6114888;23;20088;-80
2023/08/25 00:48:17;;;;;;;14.15;11.25;;;;;;;29.68;46.81;100828.19;6114609;23;20025;-80
2023/08/25 00:50:47;;;;;;;16.30;10.90;;;;;;;29.75;46.38;100829.63;6100915;23;20048;-81
2023/08/25 00:53:14;;;;;;;27.33;11.35;;;;;;;29.72;46.31;100834.81;6136118;23;20021;-80
2023/08/25 00:55:41;;;;;;;14.05;10.88;;;;;;;29.83;46.65;100858.44;6125915;23;20025;-80
2023/08/25 00:58:09;;;;;;;18.20;12.15;;;;;;;29.04;46.35;100723.03;6119998;23;20294;-81
2023/08/25 01:00:36;;;;;;;16.88;10.70;;;;;;;29.73;46.01;100847.41;6148236;23;20417;-81
2023/08/25 01:03:04;;;;;;;15.60;11.35;;;;;;;29.75;45.97;100850.72;6132948;23;20441;-79
2023/08/25 01:05:30;;;;;;;18.73;10.88;;;;;;;29.43;46.10;100804.94;6118636;23;20072;-78
2023/08/25 01:07:58;;;;;;;17.75;11.52;;;;;;;29.37;46.02;100803.22;6087130;23;20027;-80
2023/08/25 01:10:52;;;;;;;15.07;11.88;;;;;;;29.63;46.40;100841.78;6150587;23;20072;-77
2023/08/25 01:13:26;;;;;;;15.07;10.52;;;;;;;29.69;45.34;100857.22;6088102;23;20095;-78
2023/08/25 01:15:54;;;;;;;16.27;10.85;;;;;;;29.60;45.89;100849.44;6094801;23;20021;-80
2023/08/25 01:18:27;;;;;;;17.35;10.48;;;;;;;29.67;45.91;100848.44;6102353;23;20021;-79
2023/08/25 01:20:58;;;;;;;14.73;9.80;;;;;;;29.62;48.42;100835.50;6110003;23;20095;-79
2023/08/25 01:23:37;;;;;;;14.13;9.63;;;;;;;29.84;44.54;100856.56;6116536;23;20025;-80
2023/08/25 01:26:09;;;;;;;16.25;9.85;;;;;;;29.88;44.83;100861.25;6112030;23;20021;-78
2023/08/25 01:28:40;;;;;;;15.95;9.27;;;;;;;29.86;44.98;100851.63;6091310;23;20031;-79
2023/08/25 01:31:07;;;;;;;12.25;10.05;;;;;;;29.74;44.60;100840.88;6111074;23;20384;-78
2023/08/25 01:33:35;;;;;;;13.30;9.52;;;;;;;29.85;44.76;100860.94;6126677;23;20079;-77
2023/08/25 01:36:06;;;;;;;14.68;9.52;;;;;;;29.76;44.29;100857.81;6113031;23;20071;-79
2023/08/25 01:38:45;;;;;;;16.02;9.40;;;;;;;29.65;44.02;100850.56;6108133;23;20361;-80
2023/08/25 01:41:51;;;;;;;16.40;9.75;;;;;;;29.67;43.51;100862.94;6109153;23;20492;-80
2023/08/25 01:44:19;;;;;;;16.30;8.75;;;;;;;29.61;44.20;100851.09;6112255;23;20354;-79
2023/08/25 01:47:02;;;;;;;14.38;9.95;;;;;;;29.61;48.77;100856.56;6098244;23;20083;-78
2023/08/25 01:49:31;;;;;;;15.90;10.70;;;;;;;29.59;46.83;100836.84;6120934;23;20021;-79
2023/08/25 01:52:01;;;;;;;11.80;9.50;;;;;;;29.32;44.71;100784.88;6147164;23;20028;-79
2023/08/25 01:54:30;;;;;;;15.93;9.23;;;;;;;29.76;44.15;100861.41;6138568;23;20474;-79
2023/08/25 01:56:59;;;;;;;16.35;10.45;;;;;;;29.55;44.45;100830.22;6119766;23;20028;-79
2023/08/25 01:59:32;;;;;;;15.48;9.82;;;;;;;28.89;44.00;100722.88;6084589;23;20699;-79
2023/08/25 02:01:59;;;;;;;15.43;9.63;;;;;;;29.58;45.72;100835.19;6120163;23;20089;-80
2023/08/25 02:04:26;;;;;;;13.07;9.85;;;;;;;29.74;48.67;100838.13;6150664;23;20025;-81
2023/08/25 02:06:53;;;;;;;17.27;10.70;;;;;;;29.74;49.16;100832.66;6135266;23;20361;-80
2023/08/25 02:09:19;;;;;;;14.70;9.52;;;;;;;29.76;46.69;100825.84;6136057;23;20027;-80
2023/08/25 02:11:46;;;;;;;17.77;9.85;;;;;;;29.77;44.65;100837.59;6160162;23;20371;-81
2023/08/25 02:14:13;;;;;;;16.58;9.35;;;;;;;29.86;44.85;100863.41;6118680;23;20024;-81
2023/08/25 02:16:40;;;;;;;11.35;9.48;;;;;;;29.35;44.60;100783.53;6144205;23;20024;-80
2023/08/25 02:19:06;;;;;;;14.55;9.82;;;;;;;29.78;44.61;100863.88;6126462;23;20017;-81
2023/08/25 02:21:34;;;;;;;11.55;9.15;;;;;;;29.57;44.80;100819.88;6129356;23;20522;-79
2023/08/25 02:24:01;;;;;;;11.48;8.45;;;;;;;29.79;44.19;100863.63;6127572;23;20052;-80
2023/08/25 02:26:28;;;;;;;17.88;9.43;;;;;;;29.64;43.91;100855.22;6135673;23;20023;-80
2023/08/25 02:28:55;;;;;;;17.83;10.27;;;;;;;29.73;43.85;100863.81;6116709;23;20297;-79
2023/08/25 02:31:22;;;;;;;15.43;9.75;;;;;;;29.57;43.97;100843.66;6097009;23;20092;-78
2023/08/25 02:33:49;;;;;;;14.65;9.35;;;;;;;29.54;45.31;100845.00;6109267;23;20204;-78
2023/08/25 02:36:16;;;;;;;14.07;9.45;;;;;;;29.62;44.07;100851.91;6143396;23;20044;-79
2023/08/25 02:38:43;;;;;;;11.55;8.70;;;;;;;29.48;44.18;100837.00;6091115;23;20017;-80
2023/08/25 02:41:12;;;;;;;21.90;9.85;;;;;;;29.60;44.38;100871.31;6127592;23;20021;-77
2023/08/25 02:43:39;;;;;;;12.73;10.40;;;;;;;29.52;47.19;100835.41;6085083;23;20087;-78
2023/08/25 02:46:06;;;;;;;10.50;9.40;;;;;;;29.72;49.31;100862.19;6084657;23;20024;-79
2023/08/25 02:48:37;;;;;;;13.98;10.52;;;;;;;29.79;47.98;100869.09;6075354;23;20028;-82
2023/08/25 02:51:08;;;;;;;13.35;10.10;;;;;;;29.86;49.52;100868.88;6080976;23;20204;-79
2023/08/25 02:53:37;;;;;;;14.65;10.82;;;;;;;29.72;46.81;100853.97;6068479;23;20340;-79
2023/08/25 02:56:04;;;;;;;18.13;11.57;;;;;;;29.77;46.25;100864.97;6075985;23;20101;-78
2023/08/25 02:58:31;;;;;;;14.70;10.43;;;;;;;29.16;46.61;100783.88;6128438;23;20100;-77
2023/08/25 03:00:58;;;;;;;13.90;11.02;;;;;;;29.45;47.54;100841.06;6117841;23;20025;-82
2023/08/25 03:03:27;;;;;;;14.63;11.38;;;;;;;29.47;46.88;100843.53;6151459;23;20068;-80
2023/08/25 03:05:59;;;;;;;15.20;10.73;;;;;;;29.50;47.13;100857.53;6097970;23;20484;-78
2023/08/25 03:08:25;;;;;;;18.60;11.30;;;;;;;29.42;47.43;100874.41;6115326;23;20021;-78
2023/08/25 03:10:53;;;;;;;16.50;11.63;;;;;;;28.59;49.74;100735.03;6121242;23;20029;-78
2023/08/25 03:13:21;;;;;;;17.75;11.85;;;;;;;29.47;50.22;100855.31;6124354;23;20261;-77
2023/08/25 03:15:54;;;;;;;15.52;12.20;;;;;;;29.14;48.58;100807.06;6117249;23;20017;-81
2023/08/25 03:18:25;;;;;;;18.35;13.23;;;;;;;29.38;48.03;100862.31;6094451;23;20017;-78
2023/08/25 03:20:55;;;;;;;18.95;12.95;;;;;;;29.30;49.10;100860.00;6085722;23;20104;-80
2023/08/25 03:23:22;;;;;;;15.68;12.07;;;;;;;29.39;49.43;100856.56;6112317;23;20097;-77
2023/08/25 03:25:56;;;;;;;26.27;14.55;;;;;;;29.33;48.26;100843.94;6068588;23;20025;-81
2023/08/25 03:28:41;;;;;;;17.38;13.07;;;;;;;29.11;48.69;100824.00;6064465;23;20075;-81
2023/08/25 03:31:16;;;;;;;18.65;12.77;;;;;;;28.99;49.76;100821.34;6068965;23;20035;-80
2023/08/25 03:33:48;;;;;;;20.58;13.18;;;;;;;28.58;48.93;100757.16;6065502;23;20049;-80
2023/08/25 03:36:30;;;;;;;26.20;14.80;;;;;;;28.77;49.01;100813.97;6048125;23;20394;-80
2023/08/25 03:39:05;;;;;;;24.40;14.80;;;;;;;28.74;49.27;100817.19;6079861;23;20437;-79
2023/08/25 03:41:31;;;;;;;22.90;14.55;;;;;;;28.94;49.35;100856.81;6091570;23;20076;-80
2023/08/25 03:43:59;;;;;;;23.67;15.55;;;;;;;28.13;49.83;100732.47;6103893;23;20755;-79
2023/08/25 03:46:26;;;;;;;21.35;16.02;;;;;;;28.94;49.85;100862.28;6107939;23;20025;-78
2023/08/25 03:48:58;;;;;;;27.52;16.13;;;;;;;28.79;50.06;100848.38;6069628;23;20331;-82
2023/08/25 03:51:36;;;;;;;20.00;15.07;;;;;;;28.60;50.34;100834.19;6104912;23;20028;-81
2023/08/25 03:54:03;;;;;;;18.20;14.35;;;;;;;28.79;51.32;100867.50;6148291;23;20059;-78
2023/08/25 03:56:32;;;;;;;26.48;16.23;;;;;;;28.77;50.86;100863.13;6085276;23;20253;-81
2023/08/25 03:58:59;;;;;;;20.50;15.45;;;;;;;28.26;50.89;100788.63;6143207;23;20486;-80
2023/08/25 04:01:26;;;;;;;25.35;15.32;;;;;;;28.68;50.89;100859.16;6087738;23;20021;-81
2023/08/25 04:03:53;;;;;;;19.35;14.77;;;;;;;28.44;50.87;100830.38;6135012;23;20025;-79
2023/08/25 04:06:21;;;;;;;20.48;14.90;;;;;;;28.46;51.06;100850.09;6103078;23;20024;-81
2023/08/25 04:08:48;;;;;;;20.58;15.50;;;;;;;28.23;51.35;100824.59;6077934;23;20063;-78
2023/08/25 04:11:15;;;;;;;18.23;13.85;;;;;;;28.55;50.74;100875.91;6112150;23;20104;-79
2023/08/25 04:13:43;;;;;;;20.52;14.10;;;;;;;28.60;50.07;100881.44;6144892;23;20506;-81
2023/08/25 04:16:14;;;;;;;19.55;13.27;;;;;;;28.47;50.16;100858.06;6158101;23;20380;-82
2023/08/25 04:18:43;;;;;;;19.95;13.45;;;;;;;28.49;49.92;100861.34;6112904;23;20032;-81
2023/08/25 04:21:10;;;;;;;19.02;12.68;;;;;;;28.60;50.18;100888.81;6088708;23;20391;-81
2023/08/25 04:23:42;;;;;;;20.83;13.15;;;;;;;28.49;49.55;100872.25;6107434;23;20024;-81
2023/08/25 04:26:12;;;;;;;15.00;12.85;;;;;;;28.49;51.65;100844.13;6111933;23;20020;-82
2023/08/25 04:28:41;;;;;;;17.42;11.95;;;;;;;28.83;48.96;100885.06;6099578;23;20017;-82
2023/08/25 04:31:08;;;;;;;20.10;11.80;;;;;;;28.68;48.32;100867.34;6128169;23;20017;-80
2023/08/25 04:33:35;;;;;;;16.13;11.38;;;;;;;28.75;47.87;100892.59;6116677;23;20021;-78
2023/08/25 04:36:03;;;;;;;21.20;12.23;;;;;;;28.71;47.37;100885.97;6092530;23;20611;-80
2023/08/25 04:38:37;;;;;;;19.60;11.45;;;;;;;28.58;47.04;100875.41;6119508;23;20449;-79
2023/08/25 04:41:08;;;;;;;17.83;10.45;;;;;;;28.55;46.92;100865.00;6110817;23;20017;-80
2023/08/25 04:43:34;;;;;;;16.77;10.68;;;;;;;28.55;46.85;100865.81;6123298;23;20023;-80
2023/08/25 04:46:01;;;;;;;22.08;11.00;;;;;;;28.75;47.01;100892.59;6117311;23;20029;-78
2023/08/25 04:48:28;;;;;;;18.10;10.70;;;;;;;28.56;47.06;100866.63;6125492;23;20465;-79
2023/08/25 04:50:57;;;;;;;20.05;11.23;;;;;;;28.42;46.99;100843.44;6144182;23;20261;-79
2023/08/25 04:53:24;;;;;;;14.68;9.77;;;;;;;28.45;46.94;100860.19;6103292;23;20288;-81
2023/08/25 04:55:51;;;;;;;17.08;11.07;;;;;;;28.58;46.71;100886.31;6104902;23;20413;-78
2023/08/25 04:58:27;;;;;;;14.18;10.50;;;;;;;28.58;47.11;100886.31;6089936;23;20017;-81
2023/08/25 05:00:54;;;;;;;14.88;10.45;;;;;;;28.56;46.98;100885.75;6112296;23;20027;-79
2023/08/25 05:03:21;;;;;;;18.50;11.02;;;;;;;28.45;46.83;100878.44;6140093;23;20100;-80
2023/08/25 05:05:54;;;;;;;13.93;10.45;;;;;;;28.40;46.45;100868.28;6106746;23;20016;-80
2023/08/25 05:08:28;;;;;;;14.73;10.18;;;;;;;28.49;46.69;100879.63;6090072;23;20021;-81
2023/08/25 05:11:05;;;;;;;23.75;10.30;;;;;;;28.52;46.59;100893.63;6061841;23;20320;-80
2023/08/25 05:13:32;;;;;;;23.35;11.75;;;;;;;28.34;46.76;100864.63;6135869;23;20426;-80
2023/08/25 05:16:01;;;;;;;16.63;10.25;;;;;;;28.55;47.19;100897.75;6110633;23;20021;-79
2023/08/25 05:18:28;;;;;;;26.10;9.65;;;;;;;28.56;47.02;100885.75;6076976;23;20032;-80
2023/08/25 05:21:00;;;;;;;26.98;10.55;;;;;;;28.49;46.59;100871.44;6100467;23;20083;-80
2023/08/25 05:23:33;;;;;;;17.90;10.23;;;;;;;28.66;46.58;100898.72;6089633;23;20411;-80
2023/08/25 05:26:18;;;;;;;20.45;10.63;;;;;;;28.68;46.44;100899.31;6085280;23;20445;-80
2023/08/25 05:28:53;;;;;;;16.77;9.95;;;;;;;28.66;46.56;100883.16;6117022;23;20025;-80
2023/08/25 05:31:20;;;;;;;19.58;9.25;;;;;;;28.37;47.21;100818.78;6111486;23;20083;-79
2023/08/25 05:33:47;;;;;;;18.67;10.30;;;;;;;28.83;46.85;100887.78;6148553;23;20458;-79
2023/08/25 05:36:14;;;;;;;14.32;9.77;;;;;;;28.76;47.21;100869.69;6103026;23;20388;-79
2023/08/25 05:38:45;;;;;;;22.00;10.05;;;;;;;28.89;47.56;100890.34;6101656;23;20055;-80
2023/08/25 05:41:12;;;;;;;20.63;10.13;;;;;;;28.84;47.44;100884.81;6101935;23;20024;-79
2023/08/25 05:43:39;;;;;;;13.68;10.38;;;;;;;28.89;47.06;100895.00;6104214;23;20307;-80
2023/08/25 05:46:06;;;;;;;13.57;9.98;;;;;;;28.83;47.12;100882.31;6124031;23;20017;-78
2023/08/25 05:48:33;;;;;;;15.52;10.52;;;;;;;28.47;47.33;100825.28;6084650;23;20412;-80
2023/08/25 05:51:04;;;;;;;13.23;9.90;;;;;;;28.95;47.31;100891.25;6049157;23;20029;-81
2023/08/25 05:53:32;;;;;;;16.00;9.95;;;;;;;29.01;46.91;100892.13;6063839;23;20786;-81
2023/08/25 05:56:00;;;;;;;12.98;10.43;;;;;;;29.02;46.68;100880.97;6123931;23;20017;-81
2023/08/25 05:58:30;;;;;;;27.15;10.90;;;;;;;29.17;45.88;100894.84;6120468;23;20021;-80
2023/08/25 06:00:56;;;;;;;14.73;9.80;;;;;;;29.22;45.82;100891.34;6086749;23;20045;-80
2023/08/25 06:03:23;;;;;;;10.55;9.43;;;;;;;29.13;45.11;100871.03;6123443;23;20821;-80
2023/08/25 06:05:54;;;;;;;19.30;10.10;;;;;;;29.33;45.43;100892.34;6111746;23;20516;-80
2023/08/25 06:08:23;;;;;;;17.25;10.65;;;;;;;29.35;44.96;100881.97;6131253;23;20021;-80
2023/08/25 06:10:52;;;;;;;33.72;11.95;;;;;;;28.69;44.87;100762.50;6124153;23;20383;-80
2023/08/25 06:13:19;;;;;;;17.83;9.98;;;;;;;29.35;44.86;100868.31;6110197;23;20021;-79
2023/08/25 06:15:48;;;;;;;14.88;10.63;;;;;;;29.53;45.42;100889.00;6118361;23;20071;-79
2023/08/25 06:18:16;;;;;;;15.75;8.98;;;;;;;29.52;44.75;100879.97;6114447;23;20060;-80
2023/08/25 06:20:43;;;;;;;13.23;10.43;;;;;;;29.52;44.84;100874.50;6115356;23;20489;-80
2023/08/25 06:23:11;;;;;;;14.02;10.02;;;;;;;29.25;44.84;100829.88;6104145;23;20419;-81
2023/08/25 06:25:39;;;;;;;14.88;10.00;;;;;;;29.63;44.94;100874.63;6087641;23;20379;-81
2023/08/25 06:28:05;;;;;;;15.63;10.55;;;;;;;29.77;44.79;100892.31;6114014;23;20063;-79
2023/08/25 06:30:36;;;;;;;16.75;10.48;;;;;;;29.81;44.05;100890.72;6132591;23;20480;-81
2023/08/25 06:33:02;;;;;;;23.67;10.85;;;;;;;29.89;43.84;100894.91;6085251;23;20025;-79
2023/08/25 06:35:29;;;;;;;14.30;9.93;;;;;;;29.97;43.83;100899.91;6074866;23;20032;-80
2023/08/25 06:37:56;;;;;;;12.02;9.77;;;;;;;29.87;44.41;100870.53;6095508;23;20025;-79
2023/08/25 06:40:28;;;;;;;16.10;9.87;;;;;;;30.06;43.76;100883.84;6121487;23;20032;-81
2023/08/25 06:42:55;;;;;;;14.82;10.40;;;;;;;30.10;43.44;100877.59;6128702;23;20017;-79
2023/08/25 06:45:27;;;;;;;20.65;11.02;;;;;;;30.15;43.56;100879.56;6125989;23;20252;-80
2023/08/25 06:47:55;;;;;;;20.15;10.30;;;;;;;30.06;43.36;100853.75;6096380;23;20472;-80
2023/08/25 06:50:26;;;;;;;25.55;10.95;;;;;;;30.35;43.88;100901.66;6109836;23;20024;-79
2023/08/25 06:52:52;;;;;;;22.47;10.90;;;;;;;30.33;44.27;100895.63;6156312;23;20024;-80
2023/08/25 06:55:19;;;;;;;21.92;11.50;;;;;;;30.27;44.72;100880.25;6108017;23;20648;-79
2023/08/25 06:57:48;;;;;;;20.10;10.45;;;;;;;30.15;42.80;100861.22;6131047;23;20028;-81
2023/08/25 07:00:17;;;;;;;19.08;9.48;;;;;;;30.33;43.18;100883.84;6091088;23;20021;-80
2023/08/25 07:02:44;;;;;;;26.60;10.82;;;;;;;30.61;42.19;100912.81;6103973;23;20496;-78
2023/08/25 07:05:13;;;;;;;14.25;10.10;;;;;;;30.45;42.23;100882.56;6122045;23;20031;-80
2023/08/25 07:07:47;;;;;;;18.00;10.30;;;;;;;30.74;42.02;100900.59;6136951;23;20021;-81
2023/08/25 07:10:14;;;;;;;19.17;10.50;;;;;;;30.74;43.05;100917.84;6141511;23;20079;-80
2023/08/25 07:12:42;;;;;;;19.02;10.15;;;;;;;30.76;43.09;100904.72;6092422;23;20025;-81
2023/08/25 07:15:10;;;;;;;14.68;10.00;;;;;;;30.82;42.52;100909.13;6140183;23;20096;-81
2023/08/25 07:17:37;;;;;;;20.40;9.57;;;;;;;30.76;42.54;100899.22;6126859;23;20591;-79
2023/08/25 07:20:04;;;;;;;23.92;10.52;;;;;;;30.79;43.62;100906.91;6120832;23;20465;-80
2023/08/25 07:22:33;;;;;;;18.30;10.73;;;;;;;30.64;42.59;100865.72;6096220;23;20021;-81
2023/08/25 07:25:00;;;;;;;16.48;9.25;;;;;;;30.81;43.62;100887.47;6094099;23;20013;-80
2023/08/25 07:27:27;;;;;;;15.05;10.98;;;;;;;30.90;41.93;100904.25;6135710;23;20540;-80
2023/08/25 07:29:58;;;;;;;18.15;10.15;;;;;;;30.98;43.60;100903.78;6103899;23;20503;-80
2023/08/25 07:32:27;;;;;;;10.90;9.80;;;;;;;30.97;45.03;100896.63;6104666;23;20023;-80
2023/08/25 07:34:55;;;;;;;14.85;10.43;;;;;;;31.18;42.14;100917.59;6097129;23;20232;-77
2023/08/25 07:37:27;;;;;;;29.23;10.73;;;;;;;30.91;42.28;100875.78;6101404;23;20131;-79
2023/08/25 07:39:54;;;;;;;24.55;10.30;;;;;;;31.09;42.91;100908.22;6088931;23;20057;-79
2023/08/25 07:42:23;;;;;;;20.88;11.52;;;;;;;31.19;42.62;100913.78;6064409;23;20289;-77
2023/08/25 07:44:54;;;;;;;14.75;11.07;;;;;;;31.25;43.33;100926.41;6061913;23;20446;-80
2023/08/25 07:47:24;;;;;;;19.13;11.45;;;;;;;31.17;42.29;100905.00;6069553;23;20382;-81
2023/08/25 07:49:51;;;;;;;12.57;9.57;;;;;;;31.14;44.13;100916.47;6062428;23;20075;-81
2023/08/25 07:52:20;;;;;;;23.38;10.93;;;;;;;31.23;42.16;100909.38;6065001;23;20437;-78
2023/08/25 07:54:49;;;;;;;19.70;11.38;;;;;;;31.34;42.35;100931.38;6061429;23;20027;-79
2023/08/25 07:57:22;;;;;;;17.52;10.68;;;;;;;31.27;41.85;100904.22;6095715;23;20044;-81
2023/08/25 07:59:48;;;;;;;11.63;9.63;;;;;;;30.90;44.32;100855.78;6092711;23;20017;-78
2023/08/25 08:02:15;;;;;;;23.05;10.82;;;;;;;31.35;42.73;100931.13;6117112;23;20021;-81
2023/08/25 08:04:48;;;;;;;13.85;10.00;;;;;;;31.22;43.55;100928.88;6088316;23;20564;-80
2023/08/25 08:07:14;;;;;;;20.45;10.52;;;;;;;31.30;44.17;100925.59;6139199;23;20025;-80
2023/08/25 08:09:41;;;;;;;21.02;10.73;;;;;;;31.25;41.95;100907.22;6103146;23;20029;-79
2023/08/25 08:12:09;;;;;;;18.25;11.57;;;;;;;31.20;42.60;100881.69;6118032;23;20023;-79
2023/08/25 08:14:36;;;;;;;20.83;12.00;;;;;;;31.59;41.02;100939.75;6083939;23;20318;-78
2023/08/25 08:17:12;;;;;;;14.48;10.82;;;;;;;31.70;40.72;100941.44;6128654;23;20021;-78
2023/08/25 08:19:41;;;;;;;13.52;10.75;;;;;;;31.58;41.61;100916.16;6123667;23;20461;-79
2023/08/25 08:22:08;;;;;;;15.48;11.30;;;;;;;31.68;41.54;100929.91;6099659;23;20040;-79
2023/08/25 08:24:36;;;;;;;17.48;11.10;;;;;;;31.68;41.79;100932.66;6111851;23;20100;-80
2023/08/25 08:27:19;;;;;;;15.48;10.98;;;;;;;31.81;39.91;100930.50;6124378;23;20017;-78
2023/08/25 08:29:51;;;;;;;19.85;11.02;;;;;;;31.45;40.77;100880.97;6087505;23;20106;-79
2023/08/25 08:32:23;;;;;;;15.63;11.75;;;;;;;31.78;40.35;100907.16;6142232;23;20095;-78
2023/08/25 08:34:51;;;;;;;18.27;10.65;;;;;;;31.84;39.82;100906.06;6133415;23;20442;-80
2023/08/25 08:37:18;;;;;;;20.23;11.93;;;;;;;31.90;39.95;100917.88;6093230;23;20290;-79
2023/08/25 08:39:45;;;;;;;14.68;11.07;;;;;;;31.85;40.13;100906.91;6065961;23;20464;-79
2023/08/25 08:42:14;;;;;;;16.73;11.27;;;;;;;31.85;39.74;100898.66;6119009;23;20017;-77
2023/08/25 08:44:49;;;;;;;18.15;10.77;;;;;;;31.76;39.74;100870.09;6141047;23;20032;-79
2023/08/25 08:47:16;;;;;;;20.52;11.27;;;;;;;32.03;39.84;100906.41;6130743;23;20501;-78
2023/08/25 08:49:44;;;;;;;16.30;10.63;;;;;;;31.88;41.03;100884.41;6114910;23;20033;-79
2023/08/25 08:52:11;;;;;;;16.42;10.93;;;;;;;31.86;41.13;100883.84;6113979;23;20020;-78
2023/08/25 08:54:40;;;;;;;19.92;12.45;;;;;;;32.02;40.69;100891.03;6107575;23;20040;-79
2023/08/25 08:57:11;;;;;;;17.90;11.60;;;;;;;32.22;40.37;100905.88;6129372;23;20161;-80
2023/08/25 08:59:38;;;;;;;22.40;11.77;;;;;;;32.25;40.58;100894.34;6104366;23;20096;-79
2023/08/25 09:02:05;;;;;;;15.18;11.57;;;;;;;32.27;40.84;100903.94;6111321;23;20505;-78
2023/08/25 09:04:33;;;;;;;16.48;10.43;;;;;;;32.30;42.13;100902.56;6110813;23;20432;-79
2023/08/25 09:07:02;;;;;;;23.42;12.63;;;;;;;32.35;41.21;100911.63;6069836;23;20028;-77
2023/08/25 09:09:30;;;;;;;21.90;12.55;;;;;;;32.37;40.86;100911.38;6065852;23;20354;-77
2023/08/25 09:11:56;;;;;;;24.90;12.60;;;;;;;32.33;41.01;100904.75;6104583;23;20029;-79
2023/08/25 09:14:33;;;;;;;23.42;11.60;;;;;;;32.29;42.01;100900.94;6073373;23;20079;-79
2023/08/25 09:17:06;;;;;;;21.60;11.48;;;;;;;32.39;41.29;100908.34;6092103;23;20285;-80
2023/08/25 09:19:36;;;;;;;30.95;13.75;;;;;;;32.11;40.91;100875.69;6071368;23;20028;-78
2023/08/25 09:22:03;;;;;;;21.55;12.40;;;;;;;32.49;40.22;100906.44;6064379;23;20064;-78
2023/08/25 09:24:30;;;;;;;27.02;12.18;;;;;;;32.45;40.01;100886.06;6060918;23;20032;-78
2023/08/25 09:26:57;;;;;;;22.45;12.50;;;;;;;32.72;38.65;100902.31;6121941;23;20027;-77
2023/08/25 09:29:24;;;;;;;20.92;11.73;;;;;;;32.95;39.09;100906.38;6063496;23;20336;-80
2023/08/25 09:31:57;;;;;;;22.00;13.68;;;;;;;32.99;38.91;100884.66;6097319;23;20013;-81
2023/08/25 09:34:30;;;;;;;20.85;11.93;;;;;;;33.02;39.83;100886.84;6074306;23;20020;-81
2023/08/25 09:37:04;;;;;;;17.20;12.20;;;;;;;33.07;39.15;100877.78;6107938;23;20341;-79
2023/08/25 09:39:44;;;;;;;19.67;12.82;;;;;;;33.11;38.89;100873.34;6134894;23;20100;-79
2023/08/25 09:42:11;;;;;;;19.58;11.85;;;;;;;33.30;39.46;100895.56;6109568;23;20403;-80
2023/08/25 09:44:44;;;;;;;16.65;12.80;;;;;;;33.55;38.43;100897.38;6143263;23;20040;-79
2023/08/25 09:47:12;;;;;;;24.38;13.05;;;;;;;33.73;37.92;100888.50;6119821;23;20076;-79
2023/08/25 09:49:40;;;;;;;22.58;11.88;;;;;;;33.75;38.50;100889.03;6095715;23;20088;-78
2023/08/25 09:52:15;;;;;;;26.27;12.32;;;;;;;33.80;38.32;100877.16;6154190;23;20083;-78
2023/08/25 09:54:45;;;;;;;23.02;12.95;;;;;;;33.79;38.29;100865.34;6121303;23;20021;-80
2023/08/25 09:57:17;;;;;;;18.50;12.13;;;;;;;34.01;39.51;100891.63;6111580;23;20126;-79
2023/08/25 09:59:45;;;;;;;18.40;11.82;;;;;;;33.67;40.38;100867.63;6113099;23;20037;-79
2023/08/25 10:02:13;;;;;;;19.20;11.70;;;;;;;33.64;39.46;100865.41;6144780;23;20060;-79
2023/08/25 10:04:40;;;;;;;21.33;12.77;;;;;;;33.93;39.73;100886.72;6118827;23;20850;-78
2023/08/25 10:07:07;;;;;;;23.92;12.00;;;;;;;34.20;37.94;100875.22;6131569;23;20024;-79
2023/08/25 10:09:37;;;;;;;24.92;12.15;;;;;;;34.41;37.42;100884.16;6092453;23;20211;-80
2023/08/25 10:12:11;;;;;;;36.97;12.65;;;;;;;34.47;36.92;100874.75;6094721;23;20149;-79
2023/08/25 10:14:41;;;;;;;19.35;12.00;;;;;;;34.42;38.10;100863.75;6132495;23;20025;-78
2023/08/25 10:17:11;;;;;;;20.05;10.68;;;;;;;34.50;37.45;100873.34;6114048;23;20480;-78
2023/08/25 10:19:42;;;;;;;15.93;11.45;;;;;;;34.42;39.57;100891.28;6114073;23;20025;-78
2023/08/25 10:22:13;;;;;;;22.67;11.75;;;;;;;34.14;39.00;100871.72;6105141;23;20378;-79
2023/08/25 10:24:43;;;;;;;15.25;11.05;;;;;;;34.11;39.23;100883.31;6138069;23;20017;-80
2023/08/25 10:27:10;;;;;;;19.45;12.88;;;;;;;34.08;38.82;100878.38;6158452;23;20449;-79
2023/08/25 10:29:37;;;;;;;25.25;13.30;;;;;;;34.38;36.68;100876.47;6153701;23;20028;-78
2023/08/25 10:32:04;;;;;;;21.33;11.38;;;;;;;34.63;38.37;100878.19;6113139;23;20025;-80
2023/08/25 10:34:38;;;;;;;14.80;11.07;;;;;;;34.78;36.91;100879.97;6096997;23;20327;-79
2023/08/25 10:37:11;;;;;;;20.67;11.23;;;;;;;34.62;38.42;100860.81;6104030;23;20072;-78
2023/08/25 10:39:45;;;;;;;15.32;10.43;;;;;;;34.30;39.23;100844.00;6112785;23;20471;-80
2023/08/25 10:42:22;;;;;;;14.82;10.85;;;;;;;34.75;38.37;100870.34;6140327;23;20345;-81
2023/08/25 10:44:54;;;;;;;19.45;12.38;;;;;;;34.68;36.30;100865.16;6131637;23;20025;-79
2023/08/25 10:47:23;;;;;;;17.85;12.02;;;;;;;34.80;34.91;100845.47;6102397;23;20540;-81
2023/08/25 10:49:54;;;;;;;20.27;11.48;;;;;;;35.35;34.26;100864.41;6100763;23;20233;-80
2023/08/25 10:52:22;;;;;;;18.17;12.50;;;;;;;35.39;34.37;100848.06;6082001;23;20028;-78
2023/08/25 10:54:53;;;;;;;17.55;12.90;;;;;;;35.50;33.40;100811.75;6111710;23;20408;-79
2023/08/25 10:57:39;;;;;;;20.45;11.50;;;;;;;35.70;33.58;100837.44;6139873;23;20017;-79
2023/08/25 11:00:33;;;;;;;21.92;11.80;;;;;;;35.37;34.31;100806.97;6115870;23;20450;-79
2023/08/25 11:03:03;;;;;;;18.83;12.02;;;;;;;35.80;34.35;100853.84;6106181;23;20021;-79
2023/08/25 11:05:40;;;;;;;18.27;11.52;;;;;;;36.02;32.33;100844.09;6151322;23;20019;-80
2023/08/25 11:08:27;;;;;;;18.42;13.63;;;;;;;35.94;33.09;100795.88;6102599;23;20546;-80
2023/08/25 11:11:15;;;;;;;15.80;11.52;;;;;;;36.28;33.42;100839.81;6119103;23;20374;-80
2023/08/25 11:13:45;;;;;;;23.52;14.13;;;;;;;36.42;33.55;100852.84;6099373;23;20311;-80
2023/08/25 11:16:13;;;;;;;16.08;11.85;;;;;;;36.49;32.69;100822.88;6140050;23;20096;-78
2023/08/25 11:18:44;;;;;;;17.05;11.43;;;;;;;36.27;33.94;100810.53;6120949;23;20016;-81
2023/08/25 11:21:16;;;;;;;;;;;;;;;36.09;33.43;100794.84;6113382;23;20021;-81
2023/08/25 11:23:44;;;;;;;27.88;12.75;;;;;;;36.45;33.86;100819.06;6114815;23;20271;-79